createdAt,value
2022-11-05T00:01:27.515Z,99.90
2022-11-05T00:04:15.929Z,99.90
2022-11-05T00:07:04.656Z,99.90
2022-11-05T00:09:34.752Z,99.90
2022-11-05T00:12:27.588Z,99.90
2022-11-05T00:15:16.747Z,99.90
2022-11-05T00:17:45.588Z,99.90
2022-11-05T00:20:14.726Z,99.90
2022-11-05T00:23:03.045Z,99.90
2022-11-05T00:25:32.140Z,99.90
2022-11-05T00:28:03.647Z,99.90
2022-11-05T00:30:32.736Z,99.90
2022-11-05T00:33:04.768Z,99.90
2022-11-05T00:35:33.571Z,99.90
2022-11-05T00:38:05.101Z,99.90
2022-11-05T00:40:36.602Z,99.90
2022-11-05T00:43:24.983Z,99.90
2022-11-05T00:45:53.762Z,99.90
2022-11-05T00:48:42.601Z,99.90
2022-11-05T00:51:12.188Z,99.90
2022-11-05T00:53:41.165Z,99.90
2022-11-05T00:56:10.427Z,99.90
2022-11-05T00:58:39.412Z,99.90
2022-11-05T01:01:08.173Z,99.90
2022-11-05T01:03:38.874Z,99.90
2022-11-05T01:06:11.916Z,99.90
2022-11-05T01:08:42.068Z,99.90
2022-11-05T01:11:33.925Z,99.90
2022-11-05T01:14:06.365Z,99.90
2022-11-05T01:16:35.941Z,99.90
2022-11-05T01:19:07.260Z,99.90
2022-11-05T01:21:36.480Z,99.90
2022-11-05T01:24:05.705Z,99.90
2022-11-05T01:26:34.529Z,99.90
2022-11-05T01:29:03.427Z,99.90
2022-11-05T01:31:32.169Z,99.90
2022-11-05T01:34:02.707Z,99.90
2022-11-05T01:36:31.437Z,99.90
2022-11-05T01:39:00.153Z,99.90
2022-11-05T01:41:29.034Z,99.90
2022-11-05T01:44:00.971Z,99.90
2022-11-05T01:46:39.927Z,99.90
2022-11-05T01:49:17.392Z,99.90
2022-11-05T01:51:47.464Z,99.90
2022-11-05T01:54:20.677Z,99.90
2022-11-05T01:56:54.699Z,99.90
2022-11-05T01:59:27.351Z,99.90
2022-11-05T02:01:56.703Z,99.90
2022-11-05T02:04:32.378Z,99.90
2022-11-05T02:07:01.911Z,99.60
2022-11-05T02:09:51.092Z,99.90
2022-11-05T02:12:21.749Z,99.80
2022-11-05T02:14:51.697Z,99.90
2022-11-05T02:17:46.507Z,99.00
2022-11-05T02:20:24.557Z,98.70
2022-11-05T02:23:28.897Z,98.70
2022-11-05T02:26:25.416Z,98.90
2022-11-05T02:28:59.902Z,98.70
2022-11-05T02:31:34.948Z,98.30
2022-11-05T02:34:24.055Z,98.40
2022-11-05T02:37:00.440Z,98.40
2022-11-05T02:39:35.893Z,97.90
2022-11-05T02:42:12.337Z,98.10
2022-11-05T02:44:43.017Z,98.10
2022-11-05T02:47:28.470Z,98.00
2022-11-05T02:50:26.964Z,98.10
2022-11-05T02:53:02.769Z,98.30
2022-11-05T02:55:39.802Z,98.20
2022-11-05T02:58:09.313Z,98.00
2022-11-05T03:00:55.651Z,97.90
2022-11-05T03:03:26.241Z,98.20
2022-11-05T03:06:16.011Z,97.20
2022-11-05T03:09:11.150Z,97.20
2022-11-05T03:12:19.694Z,97.60
2022-11-05T03:15:04.985Z,97.90
2022-11-05T03:17:44.308Z,97.10
2022-11-05T03:20:26.030Z,97.30
2022-11-05T03:23:02.974Z,97.50
2022-11-05T03:25:34.962Z,97.40
2022-11-05T03:28:08.032Z,97.20
2022-11-05T03:30:39.742Z,97.50
2022-11-05T03:33:14.974Z,97.80
2022-11-05T03:35:47.879Z,97.90
2022-11-05T03:38:23.855Z,97.50
2022-11-05T03:40:57.219Z,97.50
2022-11-05T03:43:31.174Z,97.40
2022-11-05T03:46:06.495Z,97.50
2022-11-05T03:48:40.676Z,97.30
2022-11-05T03:51:15.663Z,97.40
2022-11-05T03:53:51.190Z,97.00
2022-11-05T03:56:28.107Z,96.90
2022-11-05T03:58:59.284Z,96.80
2022-11-05T04:01:29.652Z,97.50
2022-11-05T04:03:59.159Z,96.30
2022-11-05T04:06:47.944Z,97.10
2022-11-05T04:09:36.993Z,97.50
2022-11-05T04:12:25.515Z,96.60
2022-11-05T04:14:54.223Z,96.40
2022-11-05T04:17:22.965Z,96.50
2022-11-05T04:20:11.408Z,95.70
2022-11-05T04:22:59.731Z,96.90
2022-11-05T04:25:28.543Z,95.60
2022-11-05T04:28:01.856Z,95.60
2022-11-05T04:30:30.681Z,94.60
2022-11-05T04:33:05.209Z,94.50
2022-11-05T04:35:38.002Z,95.10
2022-11-05T04:38:07.258Z,95.20
2022-11-05T04:40:38.207Z,94.60
2022-11-05T04:43:13.658Z,95.20
2022-11-05T04:45:44.387Z,94.60
2022-11-05T04:48:13.513Z,94.10
2022-11-05T04:50:42.988Z,93.70
2022-11-05T04:53:12.012Z,93.70
2022-11-05T04:55:41.285Z,94.00
2022-11-05T04:58:11.050Z,94.60
2022-11-05T05:00:39.876Z,93.20
2022-11-05T05:03:08.896Z,92.70
2022-11-05T05:05:38.299Z,93.10
2022-11-05T05:08:07.351Z,93.30
2022-11-05T05:10:36.309Z,94.20
2022-11-05T05:13:05.152Z,94.10
2022-11-05T05:15:34.590Z,94.00
2022-11-05T05:18:03.284Z,93.70
2022-11-05T05:20:51.672Z,93.00
2022-11-05T05:23:20.349Z,93.60
2022-11-05T05:25:49.546Z,93.60
2022-11-05T05:28:18.722Z,94.50
2022-11-05T05:30:47.468Z,94.70
2022-11-05T05:33:16.277Z,95.00
2022-11-05T05:35:45.227Z,94.80
2022-11-05T05:38:13.901Z,94.70
2022-11-05T05:40:42.816Z,92.80
2022-11-05T05:43:11.865Z,92.50
2022-11-05T05:45:40.835Z,93.00
2022-11-05T05:48:09.800Z,92.70
2022-11-05T05:50:40.418Z,91.60
2022-11-05T05:53:10.975Z,91.80
2022-11-05T05:55:40.416Z,91.00
2022-11-05T05:58:09.674Z,91.30
2022-11-05T06:00:39.146Z,90.90
2022-11-05T06:03:08.592Z,90.10
2022-11-05T06:05:38.149Z,90.60
2022-11-05T06:08:07.112Z,90.10
2022-11-05T06:10:36.483Z,90.50
2022-11-05T06:13:05.442Z,91.00
2022-11-05T06:15:35.996Z,90.50
2022-11-05T06:18:05.009Z,89.80
2022-11-05T06:20:33.735Z,89.70
2022-11-05T06:23:02.476Z,90.60
2022-11-05T06:25:31.186Z,90.60
2022-11-05T06:28:00.000Z,90.50
2022-11-05T06:30:28.803Z,90.50
2022-11-05T06:32:57.530Z,90.50
2022-11-05T06:35:26.245Z,90.30
2022-11-05T06:37:55.217Z,91.20
2022-11-05T06:40:23.945Z,90.00
2022-11-05T06:42:54.672Z,90.60
2022-11-05T06:45:23.688Z,89.40
2022-11-05T06:47:58.052Z,90.30
2022-11-05T06:50:28.683Z,89.10
2022-11-05T06:53:01.087Z,90.20
2022-11-05T06:55:32.127Z,89.20
2022-11-05T06:58:00.972Z,90.40
2022-11-05T07:00:30.032Z,89.20
2022-11-05T07:03:07.264Z,90.20
2022-11-05T07:05:38.733Z,89.40
2022-11-05T07:08:07.702Z,90.40
2022-11-05T07:10:37.521Z,90.00
2022-11-05T07:13:08.411Z,90.40
2022-11-05T07:15:38.796Z,88.40
2022-11-05T07:18:08.681Z,88.60
2022-11-05T07:20:37.615Z,88.00
2022-11-05T07:23:11.676Z,87.40
2022-11-05T07:25:41.878Z,88.40
2022-11-05T07:28:11.915Z,90.20
2022-11-05T07:30:40.604Z,90.30
2022-11-05T07:33:09.698Z,87.30
2022-11-05T07:35:39.080Z,88.40
2022-11-05T07:38:08.662Z,88.40
2022-11-05T07:40:37.491Z,87.40
2022-11-05T07:43:06.273Z,89.00
2022-11-05T07:45:35.195Z,86.60
2022-11-05T07:48:06.402Z,87.30
2022-11-05T07:50:37.277Z,86.40
2022-11-05T07:53:08.978Z,88.40
2022-11-05T07:55:38.005Z,86.80
2022-11-05T07:58:06.847Z,87.80
2022-11-05T08:00:35.915Z,86.80
2022-11-05T08:03:08.534Z,87.20
2022-11-05T08:05:40.370Z,87.30
2022-11-05T08:08:10.995Z,89.20
2022-11-05T08:10:40.174Z,90.00
2022-11-05T08:13:10.737Z,87.30
2022-11-05T08:15:40.247Z,86.80
2022-11-05T08:18:12.632Z,87.40
2022-11-05T08:20:43.274Z,86.40
2022-11-05T08:23:13.017Z,87.10
2022-11-05T08:25:43.061Z,86.90
2022-11-05T08:28:14.560Z,86.30
2022-11-05T08:30:43.467Z,87.70
2022-11-05T08:33:14.271Z,86.50
2022-11-05T08:35:43.981Z,88.90
2022-11-05T08:38:16.435Z,86.90
2022-11-05T08:40:54.482Z,87.00
2022-11-05T08:43:23.212Z,90.10
2022-11-05T08:45:52.075Z,90.00
2022-11-05T08:48:21.242Z,88.60
2022-11-05T08:50:50.775Z,88.90
2022-11-05T08:53:20.276Z,90.30
2022-11-05T08:55:51.219Z,90.70
2022-11-05T08:58:21.256Z,90.80
2022-11-05T09:00:51.667Z,89.80
2022-11-05T09:03:20.511Z,89.90
2022-11-05T09:05:49.409Z,88.50
2022-11-05T09:08:20.088Z,86.40
2022-11-05T09:10:50.819Z,89.00
2022-11-05T09:13:20.455Z,87.10
2022-11-05T09:15:51.500Z,85.50
2022-11-05T09:18:21.669Z,86.90
2022-11-05T09:20:50.484Z,88.70
2022-11-05T09:23:19.259Z,88.40
2022-11-05T09:25:48.478Z,90.10
2022-11-05T09:28:21.163Z,87.30
2022-11-05T09:30:51.229Z,88.30
2022-11-05T09:33:22.347Z,89.70
2022-11-05T14:32:52.010Z,99.00
2022-11-05T14:35:21.643Z,99.10
2022-11-05T14:37:59.046Z,98.60
2022-11-05T14:40:46.018Z,98.30
2022-11-05T14:43:16.750Z,98.30
2022-11-05T14:46:08.754Z,98.30
2022-11-05T14:48:43.427Z,98.40
2022-11-05T14:51:28.217Z,98.30
2022-11-05T14:54:10.472Z,98.30
2022-11-05T14:56:55.878Z,98.40
2022-11-05T14:59:29.201Z,98.50
2022-11-05T15:02:08.864Z,98.40
2022-11-05T15:04:41.615Z,98.40
2022-11-05T15:07:11.764Z,98.30
2022-11-05T15:09:51.805Z,98.30
2022-11-05T15:12:50.343Z,98.30
2022-11-05T15:15:28.646Z,98.40
2022-11-05T15:18:02.015Z,98.50
2022-11-05T15:20:46.777Z,98.20
2022-11-05T15:23:20.764Z,99.30
2022-11-05T15:26:10.855Z,99.00
2022-11-05T15:28:46.082Z,98.70
2022-11-05T15:31:15.718Z,98.80
2022-11-05T15:33:48.529Z,98.70
2022-11-05T15:36:22.273Z,98.80
2022-11-05T15:39:08.502Z,98.60
2022-11-05T15:41:40.576Z,98.80
2022-11-05T15:44:29.929Z,98.60
2022-11-05T15:47:20.475Z,99.40
2022-11-05T15:49:52.766Z,99.80
2022-11-05T15:52:25.194Z,98.90
2022-11-05T15:55:14.144Z,99.10
2022-11-05T15:57:51.180Z,99.20
2022-11-05T16:00:28.492Z,99.20
2022-11-05T16:02:58.150Z,99.10
2022-11-05T16:05:30.653Z,99.60
2022-11-05T16:08:01.201Z,99.70
2022-11-05T16:10:35.617Z,99.90
2022-11-05T16:13:40.619Z,99.80
2022-11-05T16:16:31.757Z,99.90
2022-11-05T16:19:00.552Z,99.90
2022-11-05T16:21:29.775Z,99.90
2022-11-05T16:24:01.034Z,99.90
2022-11-05T16:27:02.272Z,99.90
2022-11-05T16:29:40.858Z,99.90
2022-11-05T16:32:30.564Z,99.90
2022-11-05T16:35:03.168Z,99.90
2022-11-05T16:37:40.780Z,99.90
2022-11-05T16:40:18.525Z,99.90
2022-11-05T16:42:49.591Z,99.90
2022-11-05T16:45:20.073Z,99.90
2022-11-05T16:47:49.934Z,99.90
2022-11-05T16:50:23.373Z,99.90
2022-11-05T16:52:52.631Z,99.90
2022-11-05T16:55:21.979Z,99.90
2022-11-05T16:57:54.969Z,99.90
2022-11-05T17:03:42.822Z,99.90
2022-11-05T17:06:12.745Z,99.90
2022-11-05T17:08:42.262Z,99.90
2022-11-05T17:11:15.660Z,99.90
2022-11-05T17:13:45.222Z,99.90
2022-11-05T17:16:17.873Z,99.90
2022-11-05T17:18:48.055Z,99.90
2022-11-05T17:21:16.834Z,99.90
2022-11-05T17:23:45.533Z,99.90
2022-11-05T17:26:16.200Z,99.90
2022-11-05T17:28:45.477Z,99.90
2022-11-05T17:31:15.243Z,99.90
2022-11-05T17:33:44.485Z,99.90
2022-11-05T17:36:15.890Z,99.90
2022-11-05T17:38:46.121Z,99.90
2022-11-05T17:41:17.185Z,99.90
2022-11-05T17:43:46.422Z,99.90
2022-11-05T17:46:17.850Z,99.90
2022-11-05T17:48:47.494Z,99.90
2022-11-05T17:51:19.462Z,99.90
2022-11-05T17:53:50.102Z,99.90
2022-11-05T17:56:32.460Z,99.90
2022-11-05T17:59:04.267Z,99.90
2022-11-05T18:01:36.663Z,99.90
2022-11-05T18:04:08.917Z,99.90
2022-11-05T18:06:39.752Z,99.90
2022-11-05T18:09:10.556Z,99.90
2022-11-05T18:11:40.133Z,99.90
2022-11-05T18:14:09.017Z,99.90
2022-11-05T18:16:38.636Z,99.90
2022-11-05T18:19:07.791Z,99.90
2022-11-05T18:21:36.971Z,99.90
2022-11-05T18:24:07.717Z,99.90
2022-11-05T18:26:36.868Z,99.90
2022-11-05T18:29:07.125Z,99.90
2022-11-05T18:31:35.885Z,99.90
2022-11-05T18:34:05.179Z,99.90
2022-11-05T18:36:35.521Z,99.90
2022-11-05T18:39:06.271Z,99.90
2022-11-05T18:41:35.097Z,99.90
2022-11-05T18:44:05.154Z,99.90
2022-11-05T18:49:23.885Z,99.90
2022-11-05T18:51:52.681Z,99.90
2022-11-05T18:54:21.614Z,99.90
2022-11-05T18:56:50.678Z,99.90
2022-11-05T18:59:39.222Z,99.90
2022-11-05T19:02:10.288Z,99.90
2022-11-05T19:04:39.520Z,99.90
2022-11-05T19:07:09.692Z,99.90
2022-11-05T19:09:39.658Z,99.90
2022-11-05T19:12:09.279Z,99.90
2022-11-05T19:14:38.620Z,99.90
2022-11-05T19:17:07.488Z,99.90
2022-11-05T19:19:36.214Z,99.90
2022-11-05T19:22:05.379Z,99.90
2022-11-05T19:24:34.453Z,99.90
2022-11-05T19:27:03.960Z,99.90
2022-11-05T19:29:32.991Z,99.90
2022-11-05T19:32:01.816Z,99.90
2022-11-05T19:34:30.592Z,99.90
2022-11-05T19:36:59.323Z,99.90
2022-11-05T19:39:28.099Z,99.90
2022-11-05T19:42:02.979Z,99.90
2022-11-05T19:44:32.945Z,99.90
2022-11-05T19:47:01.698Z,99.90
2022-11-05T19:49:30.459Z,99.90
2022-11-05T19:51:59.260Z,99.90
2022-11-05T19:54:30.832Z,99.90
2022-11-05T19:56:59.802Z,99.90
2022-11-05T19:59:28.625Z,99.90
2022-11-05T20:01:57.578Z,99.90
2022-11-05T20:04:26.550Z,99.90
2022-11-05T20:06:55.304Z,99.90
2022-11-05T20:09:24.282Z,99.90
2022-11-05T20:11:57.100Z,99.90
2022-11-05T20:14:27.737Z,99.90
2022-11-05T20:16:56.633Z,99.90
2022-11-05T20:19:25.554Z,99.90
2022-11-05T20:21:54.440Z,99.90
2022-11-05T20:24:25.514Z,99.90
2022-11-05T20:26:57.182Z,99.90
2022-11-05T20:29:34.724Z,99.90
2022-11-05T20:32:05.538Z,99.90
2022-11-05T20:34:35.981Z,99.90
2022-11-05T20:37:05.235Z,99.90
2022-11-05T20:39:34.143Z,99.90
2022-11-05T20:42:02.929Z,99.90
2022-11-05T20:44:31.777Z,99.90
2022-11-05T20:47:00.572Z,99.90
2022-11-05T20:49:29.361Z,99.90
2022-11-05T20:51:59.082Z,99.90
2022-11-05T20:54:27.868Z,99.90
2022-11-05T20:56:56.784Z,99.90
2022-11-05T20:59:25.665Z,99.90
2022-11-05T21:01:55.136Z,99.90
2022-11-05T21:04:25.035Z,99.90
2022-11-05T21:06:54.325Z,99.90
2022-11-05T21:09:23.593Z,99.90
2022-11-05T21:12:11.991Z,99.90
2022-11-05T21:14:43.109Z,99.90
2022-11-05T21:17:13.630Z,99.90
2022-11-05T21:19:42.397Z,99.90
2022-11-05T21:22:11.196Z,99.90
2022-11-05T21:24:39.964Z,99.90
2022-11-05T21:27:08.686Z,99.90
2022-11-05T21:29:40.835Z,99.90
2022-11-05T21:32:09.714Z,99.90
2022-11-05T21:34:38.425Z,99.90
2022-11-05T21:37:07.916Z,99.90
2022-11-05T21:39:36.772Z,99.90
2022-11-05T21:42:05.593Z,99.90
2022-11-05T21:44:34.351Z,99.90
2022-11-05T21:47:05.499Z,99.90
2022-11-05T21:49:36.797Z,99.90
2022-11-05T21:52:26.387Z,99.90
2022-11-05T21:55:17.553Z,99.90
2022-11-05T21:58:05.966Z,99.90
2022-11-05T22:00:39.111Z,99.90
2022-11-05T22:03:07.926Z,99.90
2022-11-05T22:05:36.864Z,99.90
2022-11-05T22:08:05.728Z,99.90
2022-11-05T22:10:34.563Z,99.90
2022-11-05T22:13:03.366Z,99.90
2022-11-05T22:15:32.159Z,99.90
2022-11-05T22:18:02.395Z,99.90
2022-11-05T22:20:31.168Z,99.90
2022-11-05T22:23:00.254Z,99.90
2022-11-05T22:25:29.086Z,99.90
2022-11-05T22:27:57.850Z,99.90
2022-11-05T22:30:28.579Z,99.90
2022-11-05T22:32:57.355Z,99.90
2022-11-05T22:35:26.117Z,99.90
2022-11-05T22:37:54.887Z,99.90
2022-11-05T22:40:24.303Z,99.90
2022-11-05T22:42:53.129Z,99.90
2022-11-05T22:45:21.917Z,99.90
2022-11-05T22:47:50.783Z,99.90
2022-11-05T22:50:19.559Z,99.90
2022-11-05T22:52:48.261Z,99.90
2022-11-05T22:55:17.162Z,99.90
2022-11-05T22:57:45.978Z,99.90
2022-11-05T23:00:18.318Z,99.90
2022-11-05T23:02:47.301Z,99.90
2022-11-05T23:05:18.573Z,99.90
2022-11-05T23:08:07.874Z,99.90
2022-11-05T23:10:58.504Z,99.90
2022-11-05T23:13:27.483Z,99.90
2022-11-05T23:16:15.831Z,99.90
2022-11-05T23:19:04.367Z,99.90
2022-11-05T23:21:53.567Z,99.90
2022-11-05T23:24:23.298Z,99.90
2022-11-05T23:26:52.515Z,99.90
2022-11-05T23:29:24.050Z,99.90
2022-11-05T23:32:12.772Z,99.90
2022-11-05T23:34:41.646Z,99.90
2022-11-05T23:37:30.788Z,99.90
2022-11-05T23:39:59.691Z,99.90
2022-11-05T23:42:48.009Z,99.90
2022-11-05T23:45:37.030Z,99.90
2022-11-05T23:48:22.234Z,99.90
2022-11-05T23:50:57.554Z,99.90
2022-11-05T23:53:26.838Z,99.90
2022-11-05T23:55:59.734Z,99.90
2022-11-05T23:58:28.857Z,99.90
